sensor_id;sensor_type;location;lat;lon;timestamp;pressure;altitude;pressure_sealevel;temperature;humidity
45369;BME280;51342;55.250;37.668;2022-10-22T00:02:10;100059.16;;;4.34;82.23
45369;BME280;51342;55.250;37.668;2022-10-22T00:04:47;100053.91;;;4.33;81.67
45369;BME280;51342;55.250;37.668;2022-10-22T00:07:19;100048.00;;;4.34;82.00
45369;BME280;51342;55.250;37.668;2022-10-22T00:09:51;100049.81;;;4.35;81.83
45369;BME280;51342;55.250;37.668;2022-10-22T00:12:23;100042.13;;;4.35;81.77
45369;BME280;51342;55.250;37.668;2022-10-22T00:14:54;100046.47;;;4.36;81.75
45369;BME280;51342;55.250;37.668;2022-10-22T00:17:25;100033.66;;;4.36;82.07
45369;BME280;51342;55.250;37.668;2022-10-22T00:19:57;100039.69;;;4.36;81.83
45369;BME280;51342;55.250;37.668;2022-10-22T00:22:28;100041.34;;;4.36;81.67
45369;BME280;51342;55.250;37.668;2022-10-22T00:25:00;100038.78;;;4.36;81.60
45369;BME280;51342;55.250;37.668;2022-10-22T00:27:31;100035.34;;;4.35;81.75
45369;BME280;51342;55.250;37.668;2022-10-22T00:30:03;100037.41;;;4.39;81.83
45369;BME280;51342;55.250;37.668;2022-10-22T00:32:34;100037.28;;;4.38;81.72
45369;BME280;51342;55.250;37.668;2022-10-22T00:35:06;100042.53;;;4.39;81.79
45369;BME280;51342;55.250;37.668;2022-10-22T00:37:37;100030.72;;;4.31;81.62
45369;BME280;51342;55.250;37.668;2022-10-22T00:40:10;100035.63;;;4.38;81.72
45369;BME280;51342;55.250;37.668;2022-10-22T00:42:41;100043.31;;;4.38;81.58
45369;BME280;51342;55.250;37.668;2022-10-22T00:45:19;100042.13;;;4.35;81.77
45369;BME280;51342;55.250;37.668;2022-10-22T00:48:03;100036.75;;;4.32;81.90
45369;BME280;51342;55.250;37.668;2022-10-22T00:53:22;100031.63;;;4.32;82.08
45369;BME280;51342;55.250;37.668;2022-10-22T00:55:54;100033.41;;;4.33;81.99
45369;BME280;51342;55.250;37.668;2022-10-22T00:58:30;100022.13;;;4.31;81.62
45369;BME280;51342;55.250;37.668;2022-10-22T01:01:05;100030.09;;;4.34;81.57
45369;BME280;51342;55.250;37.668;2022-10-22T01:03:39;100035.22;;;4.34;81.61
45369;BME280;51342;55.250;37.668;2022-10-22T01:06:16;100035.22;;;4.34;81.41
45369;BME280;51342;55.250;37.668;2022-10-22T01:09:03;100034.03;;;4.30;81.55
45369;BME280;51342;55.250;37.668;2022-10-22T01:11:51;100031.47;;;4.30;81.81
45369;BME280;51342;55.250;37.668;2022-10-22T01:14:35;100034.69;;;4.28;81.54
45369;BME280;51342;55.250;37.668;2022-10-22T01:17:22;100038.13;;;4.28;81.60
45369;BME280;51342;55.250;37.668;2022-10-22T01:27:56;100036.88;;;4.33;81.89
45369;BME280;51342;55.250;37.668;2022-10-22T01:30:32;100031.63;;;4.32;81.80
45369;BME280;51342;55.250;37.668;2022-10-22T01:33:08;100031.47;;;4.30;81.47
45369;BME280;51342;55.250;37.668;2022-10-22T01:35:42;100040.34;;;4.34;81.50
45369;BME280;51342;55.250;37.668;2022-10-22T01:38:18;100041.88;;;4.32;81.46
45369;BME280;51342;55.250;37.668;2022-10-22T01:40:50;100043.66;;;4.33;81.76
45369;BME280;51342;55.250;37.668;2022-10-22T01:43:22;100047.25;;;4.35;81.83
45369;BME280;51342;55.250;37.668;2022-10-22T01:45:57;100048.00;;;4.34;81.66
45369;BME280;51342;55.250;37.668;2022-10-22T01:51:41;100053.63;;;4.30;81.62
45369;BME280;51342;55.250;37.668;2022-10-22T01:57:12;100050.16;;;4.29;81.39
45369;BME280;51342;55.250;37.668;2022-10-22T02:02:55;100049.16;;;4.27;81.64
45369;BME280;51342;55.250;37.668;2022-10-22T02:08:12;100049.75;;;4.24;81.68
45369;BME280;51342;55.250;37.668;2022-10-22T02:10:46;100048.25;;;4.27;81.67
45369;BME280;51342;55.250;37.668;2022-10-22T02:13:26;100049.75;;;4.24;81.64
45369;BME280;51342;55.250;37.668;2022-10-22T02:15:59;100052.31;;;4.24;81.54
45369;BME280;51342;55.250;37.668;2022-10-22T02:18:32;100045.28;;;4.22;81.33
45369;BME280;51342;55.250;37.668;2022-10-22T02:21:05;100045.00;;;4.19;81.41
45369;BME280;51342;55.250;37.668;2022-10-22T02:23:37;100050.13;;;4.19;81.53
45369;BME280;51342;55.250;37.668;2022-10-22T02:26:23;100061.91;;;4.17;81.43
45369;BME280;51342;55.250;37.668;2022-10-22T02:29:00;100058.56;;;4.18;81.62
45369;BME280;51342;55.250;37.668;2022-10-22T02:31:35;100054.09;;;4.15;81.19
45369;BME280;51342;55.250;37.668;2022-10-22T02:34:10;100055.59;;;4.13;81.43
45369;BME280;51342;55.250;37.668;2022-10-22T02:36:45;100056.38;;;4.12;81.42
45369;BME280;51342;55.250;37.668;2022-10-22T02:39:19;100059.41;;;4.08;81.59
45369;BME280;51342;55.250;37.668;2022-10-22T02:41:51;100057.16;;;4.11;81.55
45369;BME280;51342;55.250;37.668;2022-10-22T02:44:23;100053.28;;;4.06;81.26
45369;BME280;51342;55.250;37.668;2022-10-22T02:46:54;100063.81;;;4.09;81.51
45369;BME280;51342;55.250;37.668;2022-10-22T02:49:26;100061.09;;;4.08;81.28
45369;BME280;51342;55.250;37.668;2022-10-22T02:51:58;100052.38;;;4.06;81.44
45369;BME280;51342;55.250;37.668;2022-10-22T02:54:29;100060.34;;;4.09;81.43
45369;BME280;51342;55.250;37.668;2022-10-22T02:57:01;100060.97;;;4.06;81.57
45369;BME280;51342;55.250;37.668;2022-10-22T02:59:32;100066.09;;;4.06;81.44
45369;BME280;51342;55.250;37.668;2022-10-22T03:02:04;100065.06;;;4.04;81.08
45369;BME280;51342;55.250;37.668;2022-10-22T03:04:35;100056.06;;;3.99;81.50
45369;BME280;51342;55.250;37.668;2022-10-22T03:07:07;100069.13;;;4.02;81.58
45369;BME280;51342;55.250;37.668;2022-10-22T03:09:38;100062.69;;;3.97;81.29
45369;BME280;51342;55.250;37.668;2022-10-22T03:12:09;100066.91;;;3.96;81.34
45369;BME280;51342;55.250;37.668;2022-10-22T03:14:41;100068.09;;;4.00;81.70
45369;BME280;51342;55.250;37.668;2022-10-22T03:17:12;100068.09;;;4.00;81.45
45369;BME280;51342;55.250;37.668;2022-10-22T03:19:43;100069.88;;;4.01;81.16
45369;BME280;51342;55.250;37.668;2022-10-22T03:22:22;100068.75;;;3.97;81.61
45369;BME280;51342;55.250;37.668;2022-10-22T03:24:59;100064.53;;;3.98;81.54
45369;BME280;51342;55.250;37.668;2022-10-22T03:27:31;100063.75;;;3.99;81.32
45369;BME280;51342;55.250;37.668;2022-10-22T03:30:04;100060.91;;;3.96;81.24
45369;BME280;51342;55.250;37.668;2022-10-22T03:32:36;100064.53;;;3.98;81.49
45369;BME280;51342;55.250;37.668;2022-10-22T03:35:07;100068.75;;;3.97;81.34
45369;BME280;51342;55.250;37.668;2022-10-22T03:37:39;100061.19;;;3.99;81.43
45369;BME280;51342;55.250;37.668;2022-10-22T03:40:11;100072.19;;;3.98;81.63
45369;BME280;51342;55.250;37.668;2022-10-22T03:42:43;100069.63;;;3.98;81.75
45369;BME280;51342;55.250;37.668;2022-10-22T03:45:14;100071.31;;;3.97;81.40
45369;BME280;51342;55.250;37.668;2022-10-22T03:47:45;100072.94;;;3.97;81.46
45369;BME280;51342;55.250;37.668;2022-10-22T03:50:17;100073.09;;;3.98;81.65
45369;BME280;51342;55.250;37.668;2022-10-22T03:52:48;100073.88;;;3.97;81.56
45369;BME280;51342;55.250;37.668;2022-10-22T03:55:20;100075.38;;;3.95;81.72
45369;BME280;51342;55.250;37.668;2022-10-22T03:57:51;100074.47;;;3.95;81.50
45369;BME280;51342;55.250;37.668;2022-10-22T04:00:22;100072.03;;;3.96;81.54
45369;BME280;51342;55.250;37.668;2022-10-22T04:02:54;100073.69;;;3.96;81.80
45369;BME280;51342;55.250;37.668;2022-10-22T04:05:25;100074.75;;;3.98;81.66
45369;BME280;51342;55.250;37.668;2022-10-22T04:07:57;100065.25;;;3.97;81.83
45369;BME280;51342;55.250;37.668;2022-10-22T04:10:28;100069.00;;;4.01;81.61
45369;BME280;51342;55.250;37.668;2022-10-22T04:12:59;100070.78;;;4.02;81.64
45369;BME280;51342;55.250;37.668;2022-10-22T04:15:31;100069.88;;;4.01;81.75
45369;BME280;51342;55.250;37.668;2022-10-22T04:18:03;100067.47;;;4.03;82.04
45369;BME280;51342;55.250;37.668;2022-10-22T04:20:34;100064.28;;;4.05;82.06
45369;BME280;51342;55.250;37.668;2022-10-22T04:23:05;100074.66;;;4.07;81.74
45369;BME280;51342;55.250;37.668;2022-10-22T04:25:37;100065.59;;;4.10;81.83
45369;BME280;51342;55.250;37.668;2022-10-22T04:28:09;100069.94;;;4.11;82.15
45369;BME280;51342;55.250;37.668;2022-10-22T04:30:40;100068.16;;;4.10;82.17
45369;BME280;51342;55.250;37.668;2022-10-22T04:33:12;100064.81;;;4.11;82.34
45369;BME280;51342;55.250;37.668;2022-10-22T04:35:43;100068.94;;;4.09;81.96
45369;BME280;51342;55.250;37.668;2022-10-22T04:38:15;100081.97;;;4.12;82.03
45369;BME280;51342;55.250;37.668;2022-10-22T04:40:46;100075.19;;;4.13;82.41
45369;BME280;51342;55.250;37.668;2022-10-22T04:43:17;100074.59;;;4.15;82.17
45369;BME280;51342;55.250;37.668;2022-10-22T04:45:49;100064.81;;;4.11;82.37
45369;BME280;51342;55.250;37.668;2022-10-22T04:48:20;100077.28;;;4.17;82.22
45369;BME280;51342;55.250;37.668;2022-10-22T04:50:52;100084.06;;;4.16;82.17
45369;BME280;51342;55.250;37.668;2022-10-22T04:53:23;100077.41;;;4.18;82.22
45369;BME280;51342;55.250;37.668;2022-10-22T04:55:54;100081.91;;;4.21;82.46
45369;BME280;51342;55.250;37.668;2022-10-22T04:58:36;100088.81;;;4.22;82.33
45369;BME280;51342;55.250;37.668;2022-10-22T05:01:19;100086.38;;;4.23;82.50
45369;BME280;51342;55.250;37.668;2022-10-22T05:03:52;100091.78;;;4.27;82.75
45369;BME280;51342;55.250;37.668;2022-10-22T05:06:25;100083.34;;;4.28;82.49
45369;BME280;51342;55.250;37.668;2022-10-22T05:09:00;100091.03;;;4.28;82.71
45369;BME280;51342;55.250;37.668;2022-10-22T05:11:34;100084.38;;;4.30;82.57
45369;BME280;51342;55.250;37.668;2022-10-22T05:14:07;100082.22;;;4.34;82.62
45369;BME280;51342;55.250;37.668;2022-10-22T05:16:39;100088.50;;;4.38;82.61
45369;BME280;51342;55.250;37.668;2022-10-22T05:19:18;100081.84;;;4.40;82.68
45369;BME280;51342;55.250;37.668;2022-10-22T05:21:51;100087.25;;;4.43;82.26
45369;BME280;51342;55.250;37.668;2022-10-22T05:24:23;100089.03;;;4.44;82.60
45369;BME280;51342;55.250;37.668;2022-10-22T05:26:56;100083.75;;;4.42;82.32
45369;BME280;51342;55.250;37.668;2022-10-22T05:29:28;100085.06;;;4.47;82.49
45369;BME280;51342;55.250;37.668;2022-10-22T05:32:00;100091.38;;;4.51;82.44
45369;BME280;51342;55.250;37.668;2022-10-22T05:34:32;100091.66;;;4.54;82.61
45369;BME280;51342;55.250;37.668;2022-10-22T05:37:03;100090.09;;;4.56;82.55
45369;BME280;51342;55.250;37.668;2022-10-22T05:39:34;100086.53;;;4.54;82.59
45369;BME280;51342;55.250;37.668;2022-10-22T05:42:06;100087.66;;;4.58;82.58
45369;BME280;51342;55.250;37.668;2022-10-22T05:44:38;100093.44;;;4.55;82.31
45369;BME280;51342;55.250;37.668;2022-10-22T05:47:10;100093.31;;;4.64;82.82
45369;BME280;51342;55.250;37.668;2022-10-22T05:49:42;100100.41;;;4.66;82.48
45369;BME280;51342;55.250;37.668;2022-10-22T05:52:13;100092.44;;;4.63;82.46
45369;BME280;51342;55.250;37.668;2022-10-22T05:54:45;100102.84;;;4.75;82.22
45369;BME280;51342;55.250;37.668;2022-10-22T05:57:16;100103.88;;;4.77;82.41
45369;BME280;51342;55.250;37.668;2022-10-22T05:59:48;100105.16;;;4.82;82.19
45369;BME280;51342;55.250;37.668;2022-10-22T06:02:19;100106.31;;;4.86;82.43
45369;BME280;51342;55.250;37.668;2022-10-22T06:04:51;100104.78;;;4.88;82.40
45369;BME280;51342;55.250;37.668;2022-10-22T06:07:22;100107.50;;;4.89;82.25
45369;BME280;51342;55.250;37.668;2022-10-22T06:09:53;100112.25;;;4.95;82.43
45369;BME280;51342;55.250;37.668;2022-10-22T06:12:25;100105.84;;;5.00;82.46
45369;BME280;51342;55.250;37.668;2022-10-22T06:14:56;100112.13;;;5.03;82.08
45369;BME280;51342;55.250;37.668;2022-10-22T06:17:28;100109.72;;;5.05;81.98
45369;BME280;51342;55.250;37.668;2022-10-22T06:20:00;100107.28;;;5.07;82.23
45369;BME280;51342;55.250;37.668;2022-10-22T06:22:32;100111.75;;;5.09;82.27
45369;BME280;51342;55.250;37.668;2022-10-22T06:25:04;100111.13;;;5.12;82.09
45369;BME280;51342;55.250;37.668;2022-10-22T06:27:36;100122.69;;;5.17;82.13
45369;BME280;51342;55.250;37.668;2022-10-22T06:30:08;100115.22;;;5.20;82.11
45369;BME280;51342;55.250;37.668;2022-10-22T06:32:39;100115.63;;;5.24;82.24
45369;BME280;51342;55.250;37.668;2022-10-22T06:35:11;100110.50;;;5.24;81.91
45369;BME280;51342;55.250;37.668;2022-10-22T06:37:42;100114.59;;;5.32;81.52
45369;BME280;51342;55.250;37.668;2022-10-22T06:40:14;100117.31;;;5.34;81.60
45369;BME280;51342;55.250;37.668;2022-10-22T06:42:46;100115.63;;;5.35;81.40
45369;BME280;51342;55.250;37.668;2022-10-22T06:45:17;100125.25;;;5.37;81.83
45369;BME280;51342;55.250;37.668;2022-10-22T06:47:50;100114.22;;;5.38;81.66
45369;BME280;51342;55.250;37.668;2022-10-22T06:50:21;100126.66;;;5.44;81.43
45369;BME280;51342;55.250;37.668;2022-10-22T06:52:56;100124.47;;;5.48;81.39
45369;BME280;51342;55.250;37.668;2022-10-22T06:55:28;100116.91;;;5.50;81.34
45369;BME280;51342;55.250;37.668;2022-10-22T06:57:59;100125.38;;;5.59;81.43
45369;BME280;51342;55.250;37.668;2022-10-22T07:00:31;100130.00;;;5.63;81.20
45369;BME280;51342;55.250;37.668;2022-10-22T07:03:02;100124.09;;;5.64;80.79
45369;BME280;51342;55.250;37.668;2022-10-22T07:05:37;100133.72;;;5.67;80.72
45369;BME280;51342;55.250;37.668;2022-10-22T07:08:08;100125.38;;;5.69;80.79
45369;BME280;51342;55.250;37.668;2022-10-22T07:10:39;100130.25;;;5.76;80.87
45369;BME280;51342;55.250;37.668;2022-10-22T07:13:11;100135.09;;;5.83;80.76
45369;BME280;51342;55.250;37.668;2022-10-22T07:15:42;100137.94;;;5.87;80.96
45369;BME280;51342;55.250;37.668;2022-10-22T07:18:13;100140.00;;;5.91;80.67
45369;BME280;51342;55.250;37.668;2022-10-22T07:20:46;100151.19;;;5.91;80.34
45369;BME280;51342;55.250;37.668;2022-10-22T07:23:18;100138.47;;;5.93;80.32
45369;BME280;51342;55.250;37.668;2022-10-22T07:25:49;100144.91;;;5.98;80.01
45369;BME280;51342;55.250;37.668;2022-10-22T07:28:20;100146.06;;;6.01;80.23
45369;BME280;51342;55.250;37.668;2022-10-22T07:30:52;100145.66;;;6.07;80.05
45369;BME280;51342;55.250;37.668;2022-10-22T07:33:23;100147.56;;;6.09;79.85
45369;BME280;51342;55.250;37.668;2022-10-22T07:35:59;100145.38;;;6.14;79.71
45369;BME280;51342;55.250;37.668;2022-10-22T07:38:31;100149.97;;;6.18;80.12
45369;BME280;51342;55.250;37.668;2022-10-22T07:41:03;100143.44;;;6.22;79.51
45369;BME280;51342;55.250;37.668;2022-10-22T07:43:34;100137.13;;;6.18;79.57
45369;BME280;51342;55.250;37.668;2022-10-22T07:46:05;100143.69;;;6.25;79.57
45369;BME280;51342;55.250;37.668;2022-10-22T07:48:38;100143.81;;;6.26;79.38
45369;BME280;51342;55.250;37.668;2022-10-22T07:51:10;100133.75;;;6.29;79.33
45369;BME280;51342;55.250;37.668;2022-10-22T07:53:42;100135.69;;;6.32;79.56
45369;BME280;51342;55.250;37.668;2022-10-22T07:56:13;100144.78;;;6.38;79.51
45369;BME280;51342;55.250;37.668;2022-10-22T07:58:44;100148.91;;;6.47;78.80
45369;BME280;51342;55.250;37.668;2022-10-22T08:01:16;100147.44;;;6.50;79.10
45369;BME280;51342;55.250;37.668;2022-10-22T08:03:47;100136.38;;;6.51;79.03
45369;BME280;51342;55.250;37.668;2022-10-22T08:06:19;100142.00;;;6.57;78.89
45369;BME280;51342;55.250;37.668;2022-10-22T08:08:50;100148.56;;;6.64;78.41
45369;BME280;51342;55.250;37.668;2022-10-22T08:11:22;100137.50;;;6.65;78.53
45369;BME280;51342;55.250;37.668;2022-10-22T08:13:53;100140.56;;;6.71;78.13
45369;BME280;51342;55.250;37.668;2022-10-22T08:16:24;100137.31;;;6.74;78.26
45369;BME280;51342;55.250;37.668;2022-10-22T08:18:56;100141.56;;;6.73;78.27
45369;BME280;51342;55.250;37.668;2022-10-22T08:21:27;100144.63;;;6.79;78.03
45369;BME280;51342;55.250;37.668;2022-10-22T08:23:59;100148.22;;;6.81;77.68
45369;BME280;51342;55.250;37.668;2022-10-22T08:26:30;100136.25;;;6.82;77.42
45369;BME280;51342;55.250;37.668;2022-10-22T08:29:02;100139.72;;;6.82;76.92
45369;BME280;51342;55.250;37.668;2022-10-22T08:31:33;100133.44;;;6.79;76.87
45369;BME280;51342;55.250;37.668;2022-10-22T08:34:05;100136.38;;;6.83;76.89
45369;BME280;51342;55.250;37.668;2022-10-22T08:36:38;100138.66;;;6.90;76.96
45369;BME280;51342;55.250;37.668;2022-10-22T08:39:09;100137.34;;;6.96;76.15
45369;BME280;51342;55.250;37.668;2022-10-22T08:45:05;100137.59;;;6.99;75.76
45369;BME280;51342;55.250;37.668;2022-10-22T08:50:48;100133.91;;;7.07;75.68
45369;BME280;51342;55.250;37.668;2022-10-22T08:53:37;100129.03;;;7.10;76.12
45369;BME280;51342;55.250;37.668;2022-10-22T08:56:09;100135.66;;;7.18;75.37
45369;BME280;51342;55.250;37.668;2022-10-22T08:59:19;100129.97;;;7.22;75.16
45369;BME280;51342;55.250;37.668;2022-10-22T09:01:45;100133.81;;;7.27;75.17
45369;BME280;51342;55.250;37.668;2022-10-22T09:04:36;100130.66;;;7.31;75.11
45369;BME280;51342;55.250;37.668;2022-10-22T09:07:11;100133.72;;;7.37;74.54
45369;BME280;51342;55.250;37.668;2022-10-22T09:09:46;100128.22;;;7.33;73.92
45369;BME280;51342;55.250;37.668;2022-10-22T09:12:21;100120.25;;;7.30;73.99
45369;BME280;51342;55.250;37.668;2022-10-22T09:14:53;100122.50;;;7.37;73.93
45369;BME280;51342;55.250;37.668;2022-10-22T09:17:34;100125.44;;;7.41;73.46
45369;BME280;51342;55.250;37.668;2022-10-22T09:20:21;100129.06;;;7.43;73.70
45369;BME280;51342;55.250;37.668;2022-10-22T09:25:59;100126.16;;;7.51;73.63
45369;BME280;51342;55.250;37.668;2022-10-22T09:28:31;100119.97;;;7.49;73.06
45369;BME280;51342;55.250;37.668;2022-10-22T09:31:11;100120.91;;;7.49;73.00
45369;BME280;51342;55.250;37.668;2022-10-22T09:33:48;100124.94;;;7.57;72.93
45369;BME280;51342;55.250;37.668;2022-10-22T09:36:21;100125.03;;;7.59;72.71
45369;BME280;51342;55.250;37.668;2022-10-22T09:38:53;100128.66;;;7.61;72.52
45369;BME280;51342;55.250;37.668;2022-10-22T09:41:27;100132.34;;;7.64;72.69
45369;BME280;51342;55.250;37.668;2022-10-22T09:44:06;100130.66;;;7.65;71.88
45369;BME280;51342;55.250;37.668;2022-10-22T09:46:38;100131.78;;;7.68;71.88
45369;BME280;51342;55.250;37.668;2022-10-22T09:49:18;100128.00;;;7.75;72.01
45369;BME280;51342;55.250;37.668;2022-10-22T09:51:56;100134.50;;;7.82;72.43
45369;BME280;51342;55.250;37.668;2022-10-22T09:59:39;100129.81;;;7.88;71.26
45369;BME280;51342;55.250;37.668;2022-10-22T10:02:28;100121.19;;;7.87;71.62
45369;BME280;51342;55.250;37.668;2022-10-22T10:05:02;100122.31;;;7.91;71.70
45369;BME280;51342;55.250;37.668;2022-10-22T10:07:35;100112.91;;;7.91;71.38
45369;BME280;51342;55.250;37.668;2022-10-22T10:10:25;100115.25;;;7.88;70.79
45369;BME280;51342;55.250;37.668;2022-10-22T10:13:21;100113.25;;;7.84;71.04
45369;BME280;51342;55.250;37.668;2022-10-22T10:35:35;100095.88;;;7.93;69.91
45369;BME280;51342;55.250;37.668;2022-10-22T10:49:34;100084.56;;;7.91;69.01
45369;BME280;51342;55.250;37.668;2022-10-22T10:55:08;100087.59;;;7.86;68.99
45369;BME280;51342;55.250;37.668;2022-10-22T11:00:36;100074.94;;;7.77;68.67
45369;BME280;51342;55.250;37.668;2022-10-22T11:04:33;100081.44;;;7.72;68.85
45369;BME280;51342;55.250;37.668;2022-10-22T11:06:31;100072.81;;;7.72;68.67
45369;BME280;51342;55.250;37.668;2022-10-22T11:09:07;100076.38;;;7.74;68.80
45369;BME280;51342;55.250;37.668;2022-10-22T11:11:47;100068.31;;;7.69;68.48
45369;BME280;51342;55.250;37.668;2022-10-22T11:14:48;100074.00;;;7.65;68.63
45369;BME280;51342;55.250;37.668;2022-10-22T11:17:31;100076.94;;;7.69;68.43
45369;BME280;51342;55.250;37.668;2022-10-22T11:20:17;100079.59;;;7.71;68.42
45369;BME280;51342;55.250;37.668;2022-10-22T11:23:01;100071.56;;;7.78;68.46
45369;BME280;51342;55.250;37.668;2022-10-22T11:25:47;100064.63;;;7.77;67.53
45369;BME280;51342;55.250;37.668;2022-10-22T11:28:30;100069.00;;;7.78;68.04
45369;BME280;51342;55.250;37.668;2022-10-22T11:31:08;100063.06;;;7.79;67.96
45369;BME280;51342;55.250;37.668;2022-10-22T11:36:40;100064.50;;;7.76;67.96
45369;BME280;51342;55.250;37.668;2022-10-22T11:39:32;100065.97;;;7.72;67.90
45369;BME280;51342;55.250;37.668;2022-10-22T11:42:08;100062.72;;;7.75;68.09
45369;BME280;51342;55.250;37.668;2022-10-22T11:47:58;100054.78;;;7.72;68.82
45369;BME280;51342;55.250;37.668;2022-10-22T11:50:57;100054.88;;;7.73;68.72
45369;BME280;51342;55.250;37.668;2022-10-22T11:53:35;100052.19;;;7.72;68.44
45369;BME280;51342;55.250;37.668;2022-10-22T11:58:42;100051.28;;;7.71;67.81
45369;BME280;51342;55.250;37.668;2022-10-22T12:01:29;100053.41;;;7.65;67.89
45369;BME280;51342;55.250;37.668;2022-10-22T12:04:18;100047.34;;;7.64;68.02
45369;BME280;51342;55.250;37.668;2022-10-22T12:07:01;100055.78;;;7.62;67.63
45369;BME280;51342;55.250;37.668;2022-10-22T12:09:39;100037.41;;;7.57;68.15
45369;BME280;51342;55.250;37.668;2022-10-22T12:12:14;100047.00;;;7.60;68.31
45369;BME280;51342;55.250;37.668;2022-10-22T12:14:58;100048.59;;;7.58;68.08
45369;BME280;51342;55.250;37.668;2022-10-22T12:17:31;100048.03;;;7.62;68.15
45369;BME280;51342;55.250;37.668;2022-10-22T12:20:12;100041.53;;;7.55;68.23
45369;BME280;51342;55.250;37.668;2022-10-22T12:22:45;100038.63;;;7.62;68.71
45369;BME280;51342;55.250;37.668;2022-10-22T12:25:18;100034.81;;;7.57;68.20
45369;BME280;51342;55.250;37.668;2022-10-22T12:27:55;100041.53;;;7.55;67.65
45369;BME280;51342;55.250;37.668;2022-10-22T12:30:32;100037.72;;;7.50;68.21
45369;BME280;51342;55.250;37.668;2022-10-22T12:33:18;100037.13;;;7.42;68.43
45369;BME280;51342;55.250;37.668;2022-10-22T12:35:50;100037.38;;;7.46;68.47
45369;BME280;51342;55.250;37.668;2022-10-22T12:38:25;100027.63;;;7.41;68.45
45369;BME280;51342;55.250;37.668;2022-10-22T12:40:57;100024.84;;;7.38;68.42
45369;BME280;51342;55.250;37.668;2022-10-22T12:43:29;100028.31;;;7.39;68.86
45369;BME280;51342;55.250;37.668;2022-10-22T12:46:00;100019.69;;;7.38;68.45
45369;BME280;51342;55.250;37.668;2022-10-22T12:48:36;100022.81;;;7.34;68.95
45369;BME280;51342;55.250;37.668;2022-10-22T12:51:14;100016.53;;;7.31;68.89
45369;BME280;51342;55.250;37.668;2022-10-22T12:53:51;100020.91;;;7.32;68.79
45369;BME280;51342;55.250;37.668;2022-10-22T12:56:26;100016.53;;;7.31;69.25
45369;BME280;51342;55.250;37.668;2022-10-22T13:01:35;100019.09;;;7.31;69.39
45369;BME280;51342;55.250;37.668;2022-10-22T13:09:58;100014.19;;;7.22;69.28
45369;BME280;51342;55.250;37.668;2022-10-22T13:12:36;100013.94;;;7.19;68.92
45369;BME280;51342;55.250;37.668;2022-10-22T13:18:18;100011.69;;;7.12;69.32
45369;BME280;51342;55.250;37.668;2022-10-22T13:23:26;100007.53;;;7.14;69.26
45369;BME280;51342;55.250;37.668;2022-10-22T13:26:13;100003.50;;;7.06;69.29
45369;BME280;51342;55.250;37.668;2022-10-22T13:28:53;100001.25;;;6.99;69.66
45369;BME280;51342;55.250;37.668;2022-10-22T13:31:28;100006.72;;;7.03;69.86
45369;BME280;51342;55.250;37.668;2022-10-22T13:34:04;100006.59;;;7.02;69.80
45369;BME280;51342;55.250;37.668;2022-10-22T13:36:39;100002.06;;;6.76;70.40
45369;BME280;51342;55.250;37.668;2022-10-22T13:39:18;100004.44;;;6.84;70.47
45369;BME280;51342;55.250;37.668;2022-10-22T13:41:50;99995.94;;;6.85;70.36
45369;BME280;51342;55.250;37.668;2022-10-22T13:44:21;100003.91;;;6.88;70.21
45369;BME280;51342;55.250;37.668;2022-10-22T13:46:53;99997.63;;;6.85;70.24
45369;BME280;51342;55.250;37.668;2022-10-22T13:49:26;99989.00;;;6.84;70.38
45369;BME280;51342;55.250;37.668;2022-10-22T13:51:57;99998.50;;;6.85;70.38
45369;BME280;51342;55.250;37.668;2022-10-22T13:54:31;99995.72;;;6.82;70.76
45369;BME280;51342;55.250;37.668;2022-10-22T13:57:07;99998.72;;;6.77;70.39
45369;BME280;51342;55.250;37.668;2022-10-22T13:59:39;99996.78;;;6.74;70.59
45369;BME280;51342;55.250;37.668;2022-10-22T14:02:11;99995.88;;;6.74;70.32
45369;BME280;51342;55.250;37.668;2022-10-22T14:04:43;99998.47;;;6.74;70.45
45369;BME280;51342;55.250;37.668;2022-10-22T14:07:15;99997.69;;;6.75;70.62
45369;BME280;51342;55.250;37.668;2022-10-22T14:09:47;99989.63;;;6.70;70.87
45369;BME280;51342;55.250;37.668;2022-10-22T14:12:18;99992.97;;;6.69;70.62
45369;BME280;51342;55.250;37.668;2022-10-22T14:14:50;99993.63;;;6.67;71.35
45369;BME280;51342;55.250;37.668;2022-10-22T14:17:21;99991.38;;;6.59;71.18
45369;BME280;51342;55.250;37.668;2022-10-22T14:19:53;100001.00;;;6.62;71.03
45369;BME280;51342;55.250;37.668;2022-10-22T14:22:26;99998.31;;;6.60;70.73
45369;BME280;51342;55.250;37.668;2022-10-22T14:24:58;99998.94;;;6.58;71.00
45369;BME280;51342;55.250;37.668;2022-10-22T14:27:29;99995.47;;;6.57;71.04
45369;BME280;51342;55.250;37.668;2022-10-22T14:30:01;99991.81;;;6.54;71.06
45369;BME280;51342;55.250;37.668;2022-10-22T14:32:32;100001.28;;;6.55;71.28
45369;BME280;51342;55.250;37.668;2022-10-22T14:35:03;99995.25;;;6.54;71.05
45369;BME280;51342;55.250;37.668;2022-10-22T14:37:35;99990.66;;;6.50;70.92
45369;BME280;51342;55.250;37.668;2022-10-22T14:40:08;100001.03;;;6.52;71.15
45369;BME280;51342;55.250;37.668;2022-10-22T14:42:43;99999.16;;;6.49;71.24
45369;BME280;51342;55.250;37.668;2022-10-22T14:45:23;100002.38;;;6.47;71.05
45369;BME280;51342;55.250;37.668;2022-10-22T14:47:55;99997.00;;;6.44;71.28
45369;BME280;51342;55.250;37.668;2022-10-22T14:50:27;99992.53;;;6.41;71.81
45369;BME280;51342;55.250;37.668;2022-10-22T14:52:58;99990.38;;;6.35;71.68
45369;BME280;51342;55.250;37.668;2022-10-22T14:55:30;99993.94;;;6.37;71.67
45369;BME280;51342;55.250;37.668;2022-10-22T14:58:01;99994.72;;;6.36;72.00
45369;BME280;51342;55.250;37.668;2022-10-22T15:00:32;99993.69;;;6.34;72.00
45369;BME280;51342;55.250;37.668;2022-10-22T15:03:06;99994.38;;;6.32;72.17
45369;BME280;51342;55.250;37.668;2022-10-22T15:05:42;99996.81;;;6.30;72.32